Time;durP1;ratioP1;P1;durP2;ratioP2;P2;SDS_P1;SDS_P2;PMS_P1;PMS_P2;Temp;Humidity;BMP_temperature;BMP_pressure;BME280_temperature;BME280_humidity;BME280_pressure;Samples;Min_cycle;Max_cycle;Signal;HPM_P1;HPM_P2
2021/12/08 00:00:09;;;;;;;;;;;;;;;2.91;88.62;98298.47;4975207;28;865;-57
2021/12/08 00:02:36;;;;;;;;;;;;;;;2.90;88.56;98296.88;4975290;28;868;-57
2021/12/08 00:05:04;;;;;;;;;;;;;;;2.98;88.01;98325.75;4975453;28;942;-57
2021/12/08 00:07:30;;;;;;;;;;;;;;;2.92;88.71;98315.63;4975274;28;868;-57
2021/12/08 16:12:32;;;;;;;;;;;;;;;4.21;82.63;99213.44;4974510;28;1981;-57
2021/12/08 16:15:03;;;;;;;;;;;;;;;4.26;82.49;99213.09;4975130;28;994;-57
2021/12/08 16:17:31;;;;;;;;;;;;;;;4.25;82.06;99222.47;4975142;28;876;-57
2021/12/08 16:20:14;;;;;;;;;;;;;;;4.23;82.37;99221.28;4975286;28;807;-57
2021/12/08 16:22:41;;;;;;;;;;;;;;;4.20;82.81;99228.28;4975383;28;1054;-57
2021/12/08 16:25:06;;;;;;;;;;;;;;;4.17;83.06;99236.44;4975766;28;847;-57
2021/12/08 16:27:33;;;;;;;;;;;;;;;4.14;82.49;99238.00;4975249;28;911;-57
2021/12/08 16:30:01;;;;;;;;;;;;;;;4.15;81.74;99244.25;4974984;28;886;-57
2021/12/08 16:32:28;;;;;;;;;;;;;;;4.14;81.92;99239.91;4974829;28;1982;-57
2021/12/08 16:34:56;;;;;;;;;;;;;;;4.12;82.35;99243.06;4975038;28;844;-57
2021/12/08 16:37:24;;;;;;;;;;;;;;;4.08;82.14;99242.22;4975089;28;922;-57
2021/12/08 16:45:15;;;;;;;;;;;;;;;3.77;83.64;99246.88;4974996;28;666;-57
2021/12/08 16:47:42;;;;;;;;;;;;;;;3.60;84.33;99252.91;4974654;28;899;-57
2021/12/08 16:50:12;;;;;;;;;;;;;;;3.41;85.12;99260.03;4974712;28;827;-57
2021/12/08 16:52:40;;;;;;;;;;;;;;;3.24;85.30;99263.28;4974431;28;1894;-57
2021/12/08 16:55:07;;;;;;;;;;;;;;;3.06;85.97;99269.25;4974475;28;835;-57
2021/12/08 16:57:33;;;;;;;;;;;;;;;2.88;86.27;99278.28;4974422;28;915;-57
2021/12/08 17:00:00;;;;;;;;;;;;;;;2.70;86.83;99286.94;4957201;28;812;-57
2021/12/08 17:02:27;;;;;;;;;;;;;;;2.50;87.96;99288.13;4974411;28;847;-57
2021/12/08 17:04:52;;;;;;;;;;;;;;;2.40;88.56;99286.78;4974371;28;1017;-57
2021/12/08 17:07:19;;;;;;;;;;;;;;;2.31;88.18;99291.66;4974259;28;811;-57
2021/12/08 17:09:45;;;;;;;;;;;;;;;2.17;88.25;99292.94;4974266;28;946;-56
2021/12/08 17:12:11;;;;;;;;;;;;;;;2.09;88.88;99295.88;4973783;28;1911;-56
2021/12/08 17:14:38;;;;;;;;;;;;;;;2.00;88.78;99296.88;4974160;28;848;-56
2021/12/08 17:17:05;;;;;;;;;;;;;;;1.88;88.15;99298.94;4974240;28;883;-56
2021/12/08 17:19:32;;;;;;;;;;;;;;;1.86;88.87;99301.22;4974039;28;896;-56
2021/12/08 17:21:58;;;;;;;;;;;;;;;1.84;88.50;99304.31;4973945;28;916;-56
2021/12/08 17:24:24;;;;;;;;;;;;;;;1.80;88.52;99306.97;4973962;28;875;-56
2021/12/08 17:26:50;;;;;;;;;;;;;;;1.81;89.31;99303.09;4973282;28;875;-56
2021/12/08 17:29:17;;;;;;;;;;;;;;;1.88;88.65;99304.38;4973988;28;918;-56
2021/12/08 17:31:45;;;;;;;;;;;;;;;1.90;88.26;99302.91;4973839;28;872;-56
2021/12/08 17:34:11;;;;;;;;;;;;;;;1.91;87.84;99307.19;4973449;28;1946;-56
2021/12/08 17:36:38;;;;;;;;;;;;;;;1.84;88.50;99310.56;4956619;28;817;-56
2021/12/08 17:39:05;;;;;;;;;;;;;;;1.78;88.90;99313.91;4973656;28;833;-56
2021/12/08 17:41:32;;;;;;;;;;;;;;;1.66;89.18;99317.53;4973481;28;942;-56
2021/12/08 17:43:59;;;;;;;;;;;;;;;1.62;89.61;99300.31;4973503;28;1031;-56
2021/12/08 17:46:25;;;;;;;;;;;;;;;1.58;88.76;99299.44;4973610;28;855;-56
2021/12/08 17:48:51;;;;;;;;;;;;;;;1.53;89.10;99305.94;4973541;28;805;-56
2021/12/08 17:51:18;;;;;;;;;;;;;;;1.47;89.52;99309.31;4973540;28;808;-56
2021/12/08 17:53:46;;;;;;;;;;;;;;;1.53;89.30;99313.34;4973398;28;1942;-56
2021/12/08 17:56:13;;;;;;;;;;;;;;;1.44;89.46;99321.69;4973225;28;917;-56
2021/12/08 17:58:41;;;;;;;;;;;;;;;1.34;89.42;99319.50;4973294;28;913;-56
2021/12/08 18:01:08;;;;;;;;;;;;;;;1.33;89.54;99321.44;4973364;28;874;-56
2021/12/08 18:03:35;;;;;;;;;;;;;;;1.29;90.18;99328.72;4973078;28;895;-56
2021/12/08 18:06:03;;;;;;;;;;;;;;;1.21;90.38;99326.97;4973640;28;974;-56
2021/12/08 18:08:32;;;;;;;;;;;;;;;1.14;89.93;99318.63;4973222;28;875;-56
2021/12/08 18:11:00;;;;;;;;;;;;;;;1.14;90.77;99321.34;4973167;28;1448;-56
2021/12/08 18:13:27;;;;;;;;;;;;;;;1.18;90.63;99319.50;4973081;28;1985;-55
2021/12/08 18:15:55;;;;;;;;;;;;;;;1.21;90.93;99327.75;4973036;28;911;-56
2021/12/08 18:18:21;;;;;;;;;;;;;;;1.17;90.23;99324.19;4972990;28;951;-56
2021/12/08 18:20:49;;;;;;;;;;;;;;;1.07;89.99;99327.41;4972987;28;848;-56
2021/12/08 18:23:16;;;;;;;;;;;;;;;1.00;90.02;99335.38;4972976;28;902;-55
2021/12/08 18:25:43;;;;;;;;;;;;;;;0.97;91.00;99342.31;4972859;28;894;-56
2021/12/08 18:28:13;;;;;;;;;;;;;;;0.91;90.60;99338.25;4972996;28;1000;-56
2021/12/08 18:30:45;;;;;;;;;;;;;;;0.80;90.92;99342.63;4973065;28;962;-56
2021/12/08 18:33:12;;;;;;;;;;;;;;;0.76;91.14;99347.19;4972883;28;2100;-56
2021/12/08 18:35:51;;;;;;;;;;;;;;;0.75;90.95;99345.63;4972841;28;859;-55
2021/12/08 18:38:19;;;;;;;;;;;;;;;0.75;91.10;99343.69;4972766;28;895;-56
2021/12/08 18:40:45;;;;;;;;;;;;;;;0.73;91.09;99345.19;4972785;28;836;-56
2021/12/08 18:43:11;;;;;;;;;;;;;;;0.73;91.64;99356.06;4955380;28;1323;-56
2021/12/08 18:45:39;;;;;;;;;;;;;;;0.78;91.78;99355.81;4972743;28;907;-56
2021/12/08 18:48:06;;;;;;;;;;;;;;;0.84;91.29;99359.84;4972662;28;821;-56
2021/12/08 18:50:33;;;;;;;;;;;;;;;0.81;91.76;99358.63;4972711;28;903;-56
2021/12/08 18:52:59;;;;;;;;;;;;;;;0.76;91.69;99361.59;4955390;28;1944;-56
2021/12/08 18:55:27;;;;;;;;;;;;;;;0.72;91.13;99359.91;4972648;28;840;-56
2021/12/08 18:57:56;;;;;;;;;;;;;;;0.67;91.35;99360.94;4972625;28;848;-56
2021/12/08 19:00:23;;;;;;;;;;;;;;;0.60;91.81;99356.09;4972544;28;853;-56
2021/12/08 19:02:49;;;;;;;;;;;;;;;0.64;92.29;99360.84;4972369;28;955;-56
2021/12/08 19:05:20;;;;;;;;;;;;;;;0.68;92.53;99362.53;4972803;28;1081;-56
2021/12/08 19:07:48;;;;;;;;;;;;;;;0.69;92.57;99372.28;4972533;28;859;-56
2021/12/08 19:10:15;;;;;;;;;;;;;;;0.73;92.52;99375.09;4972837;28;816;-56
2021/12/08 19:12:42;;;;;;;;;;;;;;;0.73;92.41;99378.59;4972573;28;1907;-56
2021/12/08 19:15:09;;;;;;;;;;;;;;;0.71;91.88;99380.09;4972465;28;879;-56
2021/12/08 19:17:39;;;;;;;;;;;;;;;0.70;92.28;99373.84;4972436;28;813;-56
2021/12/08 19:20:06;;;;;;;;;;;;;;;0.73;92.80;99377.81;4972626;28;895;-56
2021/12/08 19:22:33;;;;;;;;;;;;;;;0.75;91.82;99384.50;4972389;28;844;-56
2021/12/08 19:25:01;;;;;;;;;;;;;;;0.76;92.31;99385.28;4972891;28;848;-56
2021/12/08 19:27:28;;;;;;;;;;;;;;;0.71;92.17;99386.31;4972943;28;816;-56
2021/12/08 19:29:55;;;;;;;;;;;;;;;0.73;92.40;99394.16;4972324;28;1192;-56
2021/12/08 19:32:24;;;;;;;;;;;;;;;0.77;91.92;99395.03;4972814;28;1894;-56
2021/12/08 19:34:51;;;;;;;;;;;;;;;0.85;92.07;99404.19;4972482;28;1040;-56
2021/12/08 19:37:19;;;;;;;;;;;;;;;0.91;92.04;99402.78;4972500;28;875;-56
2021/12/08 19:39:46;;;;;;;;;;;;;;;0.89;91.58;99403.13;4972150;28;939;-56
2021/12/08 19:42:13;;;;;;;;;;;;;;;0.86;92.06;99409.28;4972262;28;820;-56
2021/12/08 19:44:40;;;;;;;;;;;;;;;0.79;92.02;99414.50;4972192;28;813;-56
2021/12/08 19:47:07;;;;;;;;;;;;;;;0.74;91.47;99415.53;4972207;28;899;-56
2021/12/08 19:49:34;;;;;;;;;;;;;;;0.71;92.30;99427.13;4972153;28;884;-56
2021/12/08 19:52:01;;;;;;;;;;;;;;;0.67;92.42;99423.50;4975535;28;1882;-56
2021/12/08 19:54:28;;;;;;;;;;;;;;;0.65;91.72;99433.16;4975703;28;863;-56
2021/12/08 19:56:57;;;;;;;;;;;;;;;0.63;92.34;99430.78;4975575;28;855;-56
2021/12/08 19:59:24;;;;;;;;;;;;;;;0.64;92.06;99426.13;4975724;28;896;-56
2021/12/08 20:01:51;;;;;;;;;;;;;;;0.69;93.21;99434.06;4975455;28;827;-56
2021/12/08 20:04:18;;;;;;;;;;;;;;;0.79;93.34;99437.09;4975531;28;1038;-56
2021/12/08 20:06:45;;;;;;;;;;;;;;;0.96;93.06;99435.19;4958113;28;973;-56
2021/12/08 20:09:12;;;;;;;;;;;;;;;1.21;93.29;99439.38;4975510;28;874;-56
2021/12/08 20:11:38;;;;;;;;;;;;;;;1.47;92.11;99442.75;4975031;28;1330;-56
2021/12/08 20:14:05;;;;;;;;;;;;;;;1.63;92.56;99438.13;4975128;28;1967;-56
2021/12/08 20:16:32;;;;;;;;;;;;;;;1.73;91.23;99440.31;4975236;28;824;-56
2021/12/08 20:18:58;;;;;;;;;;;;;;;1.84;91.07;99432.41;4958091;28;899;-56
2021/12/08 20:21:25;;;;;;;;;;;;;;;1.93;90.73;99438.47;4975120;28;844;-56
2021/12/08 20:23:52;;;;;;;;;;;;;;;2.04;90.58;99438.72;4975176;28;812;-56
2021/12/08 20:26:21;;;;;;;;;;;;;;;2.12;90.78;99426.81;4975001;28;832;-56
2021/12/08 20:28:51;;;;;;;;;;;;;;;2.15;90.01;99422.59;4974927;28;1002;-56
2021/12/08 20:31:19;;;;;;;;;;;;;;;2.19;90.35;99429.72;4974927;28;938;-56
2021/12/08 20:33:46;;;;;;;;;;;;;;;2.17;90.24;99420.31;4974788;28;1882;-56
2021/12/08 20:36:15;;;;;;;;;;;;;;;2.10;90.36;99428.34;4974912;28;836;-56
2021/12/08 20:38:42;;;;;;;;;;;;;;;1.98;90.29;99429.22;4974858;28;871;-56
2021/12/08 20:41:10;;;;;;;;;;;;;;;1.86;90.80;99434.75;4974781;28;805;-56
2021/12/08 20:43:37;;;;;;;;;;;;;;;1.68;90.47;99424.22;4974661;28;929;-56
2021/12/08 20:46:05;;;;;;;;;;;;;;;1.54;90.55;99427.41;4974649;28;994;-56
2021/12/08 20:48:32;;;;;;;;;;;;;;;1.33;90.73;99429.56;4974549;28;919;-56
2021/12/08 20:50:59;;;;;;;;;;;;;;;1.09;90.35;99434.00;4974640;28;880;-56
2021/12/08 20:53:26;;;;;;;;;;;;;;;0.92;91.25;99443.28;4974660;28;1882;-56
2021/12/08 20:55:53;;;;;;;;;;;;;;;0.75;91.31;99446.28;4974487;28;895;-56
2021/12/08 20:58:20;;;;;;;;;;;;;;;0.59;92.01;99452.44;4974384;28;920;-56
2021/12/08 21:00:49;;;;;;;;;;;;;;;0.59;92.38;99454.34;4974197;28;931;-56
2021/12/08 21:03:16;;;;;;;;;;;;;;;0.54;92.35;99452.69;4973287;28;935;-56
2021/12/08 21:05:44;;;;;;;;;;;;;;;0.51;93.25;99444.41;4974689;28;1051;-56
2021/12/08 21:08:11;;;;;;;;;;;;;;;0.52;93.12;99452.22;4974202;28;915;-56
2021/12/08 21:10:38;;;;;;;;;;;;;;;0.42;92.64;99449.97;4974083;28;1427;-56
2021/12/08 21:13:05;;;;;;;;;;;;;;;0.25;92.60;99444.78;4974090;28;1973;-56
2021/12/08 21:15:33;;;;;;;;;;;;;;;0.06;92.20;99461.69;4974119;28;821;-56
2021/12/08 21:18:01;;;;;;;;;;;;;;;-0.13;92.54;99460.31;4974240;28;876;-56
2021/12/08 21:20:28;;;;;;;;;;;;;;;-0.14;93.42;99457.94;4973959;28;924;-56
2021/12/08 21:23:00;;;;;;;;;;;;;;;-0.04;94.77;99457.50;4973999;28;880;-56
2021/12/08 21:25:26;;;;;;;;;;;;;;;0.02;95.18;99455.34;4974063;28;891;-56
2021/12/08 21:27:53;;;;;;;;;;;;;;;-0.01;95.45;99451.38;4974129;28;976;-56
2021/12/08 21:30:22;;;;;;;;;;;;;;;0.05;95.57;99454.69;4974263;28;906;-56
2021/12/08 21:32:49;;;;;;;;;;;;;;;0.03;95.05;99456.94;4973597;28;1949;-56
2021/12/08 21:35:29;;;;;;;;;;;;;;;-0.09;94.63;99446.84;4973900;28;859;-55
2021/12/08 21:37:56;;;;;;;;;;;;;;;-0.18;94.63;99446.19;4973590;28;916;-56
2021/12/08 21:40:23;;;;;;;;;;;;;;;-0.21;95.14;99448.44;4973750;28;871;-57
2021/12/08 21:42:50;;;;;;;;;;;;;;;-0.32;95.04;99446.50;4973619;28;823;-57
2021/12/08 21:45:17;;;;;;;;;;;;;;;-0.42;95.07;99455.88;4973637;28;839;-56
2021/12/08 21:47:44;;;;;;;;;;;;;;;-0.42;95.65;99458.59;4973564;28;875;-56
2021/12/08 21:50:12;;;;;;;;;;;;;;;-0.30;96.04;99463.25;4973703;28;861;-57
2021/12/08 21:52:39;;;;;;;;;;;;;;;-0.16;96.18;99454.78;4973447;28;1890;-56
2021/12/08 21:55:07;;;;;;;;;;;;;;;-0.04;96.34;99457.50;4973419;28;847;-57
2021/12/08 21:57:33;;;;;;;;;;;;;;;0.04;95.78;99463.94;4973299;28;947;-57
2021/12/08 22:00:00;;;;;;;;;;;;;;;-0.01;95.22;99464.97;4973175;28;954;-56
2021/12/08 22:02:27;;;;;;;;;;;;;;;-0.25;94.14;99466.53;4973155;28;892;-56
2021/12/08 22:04:53;;;;;;;;;;;;;;;-0.63;93.66;99473.03;4973474;28;970;-56
2021/12/08 22:07:20;;;;;;;;;;;;;;;-0.78;94.85;99468.25;4973214;28;1045;-56
2021/12/08 22:09:46;;;;;;;;;;;;;;;-0.70;95.60;99466.56;4973087;28;920;-56
2021/12/08 22:12:13;;;;;;;;;;;;;;;-0.58;96.11;99472.00;4972862;28;1938;-56
2021/12/08 22:14:40;;;;;;;;;;;;;;;-0.45;96.65;99470.13;4972876;28;820;-56
2021/12/08 22:17:08;;;;;;;;;;;;;;;-0.45;95.61;99464.69;4972946;28;939;-56
2021/12/08 22:19:36;;;;;;;;;;;;;;;-0.54;95.34;99466.72;4972990;28;955;-56
2021/12/08 22:22:03;;;;;;;;;;;;;;;-0.59;95.85;99469.66;4972927;28;955;-57
2021/12/08 22:24:30;;;;;;;;;;;;;;;-0.60;95.77;99474.28;4955868;28;817;-56
2021/12/08 22:26:56;;;;;;;;;;;;;;;-0.67;95.76;99480.25;4972852;28;944;-56
2021/12/08 22:29:23;;;;;;;;;;;;;;;-0.70;95.76;99480.16;4972802;28;869;-56
2021/12/08 22:31:50;;;;;;;;;;;;;;;-0.69;95.86;99479.78;4972943;28;1054;-56
2021/12/08 22:34:17;;;;;;;;;;;;;;;-0.68;96.25;99475.97;4972748;28;1890;-56
2021/12/08 22:36:44;;;;;;;;;;;;;;;-0.66;96.50;99481.06;4972912;28;993;-56
2021/12/08 22:39:12;;;;;;;;;;;;;;;-0.59;96.42;99475.88;4972972;28;903;-56
2021/12/08 22:41:39;;;;;;;;;;;;;;;-0.54;96.70;99478.34;4972701;28;970;-57
2021/12/08 22:44:05;;;;;;;;;;;;;;;-0.55;96.40;99474.06;4972767;28;844;-56
2021/12/08 22:46:31;;;;;;;;;;;;;;;-0.57;96.34;99479.03;4972663;28;932;-56
2021/12/08 22:48:58;;;;;;;;;;;;;;;-0.57;96.49;99478.25;4972778;28;894;-57
2021/12/08 22:51:27;;;;;;;;;;;;;;;-0.57;96.61;99479.03;4972680;28;821;-56
2021/12/08 22:53:55;;;;;;;;;;;;;;;-0.53;96.51;99476.47;4972503;28;1890;-56
2021/12/08 22:56:22;;;;;;;;;;;;;;;-0.58;96.24;99468.50;4972618;28;840;-56
2021/12/08 22:58:48;;;;;;;;;;;;;;;-0.56;96.28;99477.91;4972829;28;931;-56
2021/12/08 23:01:17;;;;;;;;;;;;;;;-0.56;96.18;99479.84;4972532;28;840;-56
2021/12/08 23:03:44;;;;;;;;;;;;;;;-0.56;96.50;99480.63;4972536;28;1040;-57
2021/12/08 23:06:11;;;;;;;;;;;;;;;-0.56;96.80;99477.13;4972614;28;840;-56
2021/12/08 23:08:38;;;;;;;;;;;;;;;-0.61;96.82;99475.41;4972513;28;899;-56
2021/12/08 23:11:11;;;;;;;;;;;;;;;-0.66;96.65;99470.22;4972268;28;1417;-57
2021/12/08 23:13:40;;;;;;;;;;;;;;;-0.79;95.87;99477.53;4972383;28;2040;-56
2021/12/08 23:16:11;;;;;;;;;;;;;;;-0.88;96.14;99472.16;4972350;28;968;-56
2021/12/08 23:18:38;;;;;;;;;;;;;;;-0.86;96.08;99480.75;4972389;28;907;-57
2021/12/08 23:21:05;;;;;;;;;;;;;;;-0.79;96.48;99477.53;4972444;28;1658;-56
2021/12/08 23:23:34;;;;;;;;;;;;;;;-0.71;96.61;99473.91;4972364;28;828;-56
2021/12/08 23:26:03;;;;;;;;;;;;;;;-0.72;96.35;99466.13;4974504;28;883;-56
2021/12/08 23:28:30;;;;;;;;;;;;;;;-0.80;96.08;99475.91;4976070;28;816;-56
2021/12/08 23:30:57;;;;;;;;;;;;;;;-0.82;96.31;99468.09;4958831;28;883;-56
2021/12/08 23:33:28;;;;;;;;;;;;;;;-0.79;96.46;99471.28;4976011;28;1957;-56
2021/12/08 23:35:58;;;;;;;;;;;;;;;-0.91;95.79;99475.53;4975951;28;943;-56
2021/12/08 23:38:49;;;;;;;;;;;;;;;-0.99;95.72;99476.41;4975903;28;1045;-56
2021/12/08 23:41:18;;;;;;;;;;;;;;;-0.96;96.30;99483.91;4976378;28;923;-56
2021/12/08 23:43:45;;;;;;;;;;;;;;;-1.03;95.89;99473.56;4976044;28;911;-56
2021/12/08 23:46:13;;;;;;;;;;;;;;;-1.09;95.65;99484.94;4975710;28;967;-56
2021/12/08 23:48:40;;;;;;;;;;;;;;;-1.00;96.21;99487.59;4975894;28;828;-56
2021/12/08 23:51:07;;;;;;;;;;;;;;;-0.96;96.32;99488.50;4975683;28;820;-56
2021/12/08 23:53:34;;;;;;;;;;;;;;;-1.07;95.58;99488.13;4975894;28;1894;-56
2021/12/08 23:56:03;;;;;;;;;;;;;;;-1.07;96.14;99486.22;4975497;28;927;-56
2021/12/08 23:58:35;;;;;;;;;;;;;;;-0.99;96.42;99484.53;4975674;28;832;-56
